sensor_id;sensor_type;location;lat;lon;timestamp;P1;durP1;ratioP1;P2;durP2;ratioP2
2129;SDS011;1071;52.544;13.374;2023-06-10T00:02:21;8.73;;;6.00;;
2129;SDS011;1071;52.544;13.374;2023-06-10T00:05:04;6.60;;;5.27;;
2129;SDS011;1071;52.544;13.374;2023-06-10T00:07:32;8.80;;;5.60;;
2129;SDS011;1071;52.544;13.374;2023-06-10T00:10:03;7.17;;;5.80;;
2129;SDS011;1071;52.544;13.374;2023-06-10T00:12:42;6.43;;;4.77;;
2129;SDS011;1071;52.544;13.374;2023-06-10T00:15:38;7.90;;;6.20;;
2129;SDS011;1071;52.544;13.374;2023-06-10T00:18:05;7.47;;;5.10;;
2129;SDS011;1071;52.544;13.374;2023-06-10T00:20:35;9.00;;;5.37;;
2129;SDS011;1071;52.544;13.374;2023-06-10T00:23:02;11.00;;;5.40;;
2129;SDS011;1071;52.544;13.374;2023-06-10T00:25:31;10.90;;;6.70;;
2129;SDS011;1071;52.544;13.374;2023-06-10T00:28:00;7.40;;;5.40;;
2129;SDS011;1071;52.544;13.374;2023-06-10T00:30:27;11.20;;;7.77;;
2129;SDS011;1071;52.544;13.374;2023-06-10T00:32:54;9.30;;;5.77;;
2129;SDS011;1071;52.544;13.374;2023-06-10T00:35:21;13.63;;;9.43;;
2129;SDS011;1071;52.544;13.374;2023-06-10T00:37:48;9.60;;;7.50;;
2129;SDS011;1071;52.544;13.374;2023-06-10T00:40:15;10.93;;;6.80;;
2129;SDS011;1071;52.544;13.374;2023-06-10T00:42:43;11.90;;;6.60;;
2129;SDS011;1071;52.544;13.374;2023-06-10T00:45:11;11.50;;;6.03;;
2129;SDS011;1071;52.544;13.374;2023-06-10T00:47:41;7.33;;;6.47;;
2129;SDS011;1071;52.544;13.374;2023-06-10T00:50:09;11.40;;;6.60;;
2129;SDS011;1071;52.544;13.374;2023-06-10T00:52:37;8.97;;;7.47;;
2129;SDS011;1071;52.544;13.374;2023-06-10T00:55:05;7.73;;;6.33;;
2129;SDS011;1071;52.544;13.374;2023-06-10T00:57:32;11.30;;;6.47;;
2129;SDS011;1071;52.544;13.374;2023-06-10T01:00:03;7.57;;;5.60;;
2129;SDS011;1071;52.544;13.374;2023-06-10T01:02:34;6.93;;;5.87;;
2129;SDS011;1071;52.544;13.374;2023-06-10T01:05:03;8.83;;;5.60;;
2129;SDS011;1071;52.544;13.374;2023-06-10T01:07:33;10.87;;;5.20;;
2129;SDS011;1071;52.544;13.374;2023-06-10T01:10:05;7.80;;;5.50;;
2129;SDS011;1071;52.544;13.374;2023-06-10T01:12:39;7.20;;;5.57;;
2129;SDS011;1071;52.544;13.374;2023-06-10T01:15:13;12.43;;;6.73;;
2129;SDS011;1071;52.544;13.374;2023-06-10T01:17:56;8.70;;;6.00;;
2129;SDS011;1071;52.544;13.374;2023-06-10T01:20:27;7.30;;;6.60;;
2129;SDS011;1071;52.544;13.374;2023-06-10T01:22:56;14.63;;;7.60;;
2129;SDS011;1071;52.544;13.374;2023-06-10T01:25:27;6.73;;;5.20;;
2129;SDS011;1071;52.544;13.374;2023-06-10T01:27:59;10.47;;;5.77;;
2129;SDS011;1071;52.544;13.374;2023-06-10T01:30:32;11.13;;;5.60;;
2129;SDS011;1071;52.544;13.374;2023-06-10T01:33:08;6.67;;;5.03;;
2129;SDS011;1071;52.544;13.374;2023-06-10T01:35:37;7.13;;;5.30;;
2129;SDS011;1071;52.544;13.374;2023-06-10T01:38:08;10.70;;;5.20;;
2129;SDS011;1071;52.544;13.374;2023-06-10T01:40:36;10.40;;;5.80;;
2129;SDS011;1071;52.544;13.374;2023-06-10T01:43:04;8.37;;;5.60;;
2129;SDS011;1071;52.544;13.374;2023-06-10T01:45:32;9.03;;;6.37;;
2129;SDS011;1071;52.544;13.374;2023-06-10T01:47:59;9.37;;;5.57;;
2129;SDS011;1071;52.544;13.374;2023-06-10T01:50:26;12.27;;;8.00;;
2129;SDS011;1071;52.544;13.374;2023-06-10T01:52:53;12.53;;;10.47;;
2129;SDS011;1071;52.544;13.374;2023-06-10T01:55:22;9.50;;;7.00;;
2129;SDS011;1071;52.544;13.374;2023-06-10T01:57:49;9.03;;;6.27;;
2129;SDS011;1071;52.544;13.374;2023-06-10T02:00:17;11.93;;;5.73;;
2129;SDS011;1071;52.544;13.374;2023-06-10T02:02:44;8.50;;;5.53;;
2129;SDS011;1071;52.544;13.374;2023-06-10T02:05:11;9.43;;;6.30;;
2129;SDS011;1071;52.544;13.374;2023-06-10T02:07:38;10.27;;;7.00;;
2129;SDS011;1071;52.544;13.374;2023-06-10T02:10:06;12.10;;;6.30;;
2129;SDS011;1071;52.544;13.374;2023-06-10T02:12:35;8.00;;;5.90;;
2129;SDS011;1071;52.544;13.374;2023-06-10T02:15:01;13.47;;;6.90;;
2129;SDS011;1071;52.544;13.374;2023-06-10T02:17:29;6.40;;;5.33;;
2129;SDS011;1071;52.544;13.374;2023-06-10T02:19:59;9.27;;;6.30;;
2129;SDS011;1071;52.544;13.374;2023-06-10T02:22:29;6.23;;;4.70;;
2129;SDS011;1071;52.544;13.374;2023-06-10T02:24:56;9.13;;;5.07;;
2129;SDS011;1071;52.544;13.374;2023-06-10T02:27:23;8.17;;;6.23;;
2129;SDS011;1071;52.544;13.374;2023-06-10T02:29:52;6.90;;;5.17;;
2129;SDS011;1071;52.544;13.374;2023-06-10T02:32:19;9.37;;;5.40;;
2129;SDS011;1071;52.544;13.374;2023-06-10T02:34:46;9.87;;;6.57;;
2129;SDS011;1071;52.544;13.374;2023-06-10T02:37:14;9.93;;;5.60;;
2129;SDS011;1071;52.544;13.374;2023-06-10T02:39:41;6.37;;;5.47;;
2129;SDS011;1071;52.544;13.374;2023-06-10T02:42:08;8.87;;;5.70;;
2129;SDS011;1071;52.544;13.374;2023-06-10T02:44:36;7.30;;;5.03;;
2129;SDS011;1071;52.544;13.374;2023-06-10T02:47:05;7.47;;;5.07;;
2129;SDS011;1071;52.544;13.374;2023-06-10T02:49:35;11.20;;;6.87;;
2129;SDS011;1071;52.544;13.374;2023-06-10T02:52:02;11.37;;;5.60;;
2129;SDS011;1071;52.544;13.374;2023-06-10T02:54:29;7.10;;;6.13;;
2129;SDS011;1071;52.544;13.374;2023-06-10T02:56:57;16.67;;;12.40;;
2129;SDS011;1071;52.544;13.374;2023-06-10T02:59:24;6.70;;;6.00;;
2129;SDS011;1071;52.544;13.374;2023-06-10T03:01:52;13.00;;;6.47;;
2129;SDS011;1071;52.544;13.374;2023-06-10T03:04:20;10.50;;;5.93;;
2129;SDS011;1071;52.544;13.374;2023-06-10T03:06:49;6.33;;;5.60;;
2129;SDS011;1071;52.544;13.374;2023-06-10T03:09:16;6.77;;;5.00;;
2129;SDS011;1071;52.544;13.374;2023-06-10T03:11:43;5.03;;;4.40;;
2129;SDS011;1071;52.544;13.374;2023-06-10T03:14:10;10.00;;;5.87;;
2129;SDS011;1071;52.544;13.374;2023-06-10T03:16:39;9.00;;;5.93;;
2129;SDS011;1071;52.544;13.374;2023-06-10T03:19:07;10.00;;;5.53;;
2129;SDS011;1071;52.544;13.374;2023-06-10T03:21:36;7.23;;;5.10;;
2129;SDS011;1071;52.544;13.374;2023-06-10T03:24:03;7.43;;;6.03;;
2129;SDS011;1071;52.544;13.374;2023-06-10T03:26:32;9.30;;;6.80;;
2129;SDS011;1071;52.544;13.374;2023-06-10T03:28:59;7.67;;;5.20;;
2129;SDS011;1071;52.544;13.374;2023-06-10T03:31:26;14.50;;;6.80;;
2129;SDS011;1071;52.544;13.374;2023-06-10T03:33:54;7.37;;;4.77;;
2129;SDS011;1071;52.544;13.374;2023-06-10T03:36:23;9.20;;;5.80;;
2129;SDS011;1071;52.544;13.374;2023-06-10T03:38:55;9.37;;;5.80;;
2129;SDS011;1071;52.544;13.374;2023-06-10T03:41:22;7.27;;;5.40;;
2129;SDS011;1071;52.544;13.374;2023-06-10T03:43:50;10.13;;;6.23;;
2129;SDS011;1071;52.544;13.374;2023-06-10T03:46:17;8.53;;;5.40;;
2129;SDS011;1071;52.544;13.374;2023-06-10T03:48:47;7.27;;;5.33;;
2129;SDS011;1071;52.544;13.374;2023-06-10T03:51:15;14.10;;;6.90;;
2129;SDS011;1071;52.544;13.374;2023-06-10T03:53:42;7.53;;;6.07;;
2129;SDS011;1071;52.544;13.374;2023-06-10T03:56:10;9.00;;;5.90;;
2129;SDS011;1071;52.544;13.374;2023-06-10T03:58:42;9.50;;;5.07;;
2129;SDS011;1071;52.544;13.374;2023-06-10T04:01:10;7.37;;;5.17;;
2129;SDS011;1071;52.544;13.374;2023-06-10T04:03:38;7.93;;;6.00;;
2129;SDS011;1071;52.544;13.374;2023-06-10T04:06:06;11.20;;;6.40;;
2129;SDS011;1071;52.544;13.374;2023-06-10T04:08:35;7.50;;;6.40;;
2129;SDS011;1071;52.544;13.374;2023-06-10T04:11:05;7.60;;;6.80;;
2129;SDS011;1071;52.544;13.374;2023-06-10T04:13:33;8.90;;;5.57;;
2129;SDS011;1071;52.544;13.374;2023-06-10T04:16:01;8.43;;;6.90;;
2129;SDS011;1071;52.544;13.374;2023-06-10T04:18:28;8.23;;;6.30;;
2129;SDS011;1071;52.544;13.374;2023-06-10T04:20:55;6.17;;;5.33;;
2129;SDS011;1071;52.544;13.374;2023-06-10T04:23:22;7.53;;;6.73;;
2129;SDS011;1071;52.544;13.374;2023-06-10T04:25:49;8.07;;;5.93;;
2129;SDS011;1071;52.544;13.374;2023-06-10T04:28:16;10.50;;;6.47;;
2129;SDS011;1071;52.544;13.374;2023-06-10T04:30:44;8.40;;;6.17;;
2129;SDS011;1071;52.544;13.374;2023-06-10T04:33:12;8.03;;;6.10;;
2129;SDS011;1071;52.544;13.374;2023-06-10T04:35:39;6.53;;;5.93;;
2129;SDS011;1071;52.544;13.374;2023-06-10T04:38:07;7.47;;;6.70;;
2129;SDS011;1071;52.544;13.374;2023-06-10T04:40:34;12.93;;;6.13;;
2129;SDS011;1071;52.544;13.374;2023-06-10T04:43:01;10.07;;;6.47;;
2129;SDS011;1071;52.544;13.374;2023-06-10T04:45:29;9.27;;;6.30;;
2129;SDS011;1071;52.544;13.374;2023-06-10T04:47:57;8.13;;;6.57;;
2129;SDS011;1071;52.544;13.374;2023-06-10T04:50:24;11.73;;;7.63;;
2129;SDS011;1071;52.544;13.374;2023-06-10T04:52:51;7.00;;;6.17;;
2129;SDS011;1071;52.544;13.374;2023-06-10T04:55:18;7.67;;;6.30;;
2129;SDS011;1071;52.544;13.374;2023-06-10T04:57:47;7.67;;;5.43;;
2129;SDS011;1071;52.544;13.374;2023-06-10T05:00:14;11.57;;;6.97;;
2129;SDS011;1071;52.544;13.374;2023-06-10T05:02:41;10.50;;;6.43;;
2129;SDS011;1071;52.544;13.374;2023-06-10T05:05:11;8.40;;;6.07;;
2129;SDS011;1071;52.544;13.374;2023-06-10T05:07:38;9.63;;;6.30;;
2129;SDS011;1071;52.544;13.374;2023-06-10T05:10:05;7.50;;;6.80;;
2129;SDS011;1071;52.544;13.374;2023-06-10T05:12:33;10.37;;;7.40;;
2129;SDS011;1071;52.544;13.374;2023-06-10T05:15:03;9.03;;;6.03;;
2129;SDS011;1071;52.544;13.374;2023-06-10T05:17:31;8.53;;;5.90;;
2129;SDS011;1071;52.544;13.374;2023-06-10T05:19:59;7.83;;;6.47;;
2129;SDS011;1071;52.544;13.374;2023-06-10T05:22:35;8.73;;;6.43;;
2129;SDS011;1071;52.544;13.374;2023-06-10T05:25:04;9.70;;;6.50;;
2129;SDS011;1071;52.544;13.374;2023-06-10T05:27:32;8.00;;;6.30;;
2129;SDS011;1071;52.544;13.374;2023-06-10T05:30:00;7.40;;;6.70;;
2129;SDS011;1071;52.544;13.374;2023-06-10T05:32:28;8.83;;;6.43;;
2129;SDS011;1071;52.544;13.374;2023-06-10T05:34:55;5.90;;;5.30;;
2129;SDS011;1071;52.544;13.374;2023-06-10T05:37:22;11.27;;;6.90;;
2129;SDS011;1071;52.544;13.374;2023-06-10T05:39:52;10.10;;;7.60;;
2129;SDS011;1071;52.544;13.374;2023-06-10T05:42:19;7.43;;;6.70;;
2129;SDS011;1071;52.544;13.374;2023-06-10T05:44:46;8.97;;;6.30;;
2129;SDS011;1071;52.544;13.374;2023-06-10T05:47:13;8.80;;;6.97;;
2129;SDS011;1071;52.544;13.374;2023-06-10T05:49:43;8.33;;;7.63;;
2129;SDS011;1071;52.544;13.374;2023-06-10T05:52:13;9.40;;;7.03;;
2129;SDS011;1071;52.544;13.374;2023-06-10T05:54:40;11.40;;;7.57;;
2129;SDS011;1071;52.544;13.374;2023-06-10T05:57:08;8.90;;;7.07;;
2129;SDS011;1071;52.544;13.374;2023-06-10T05:59:38;9.70;;;6.20;;
2129;SDS011;1071;52.544;13.374;2023-06-10T06:02:05;6.40;;;5.80;;
2129;SDS011;1071;52.544;13.374;2023-06-10T06:04:33;8.27;;;6.70;;
2129;SDS011;1071;52.544;13.374;2023-06-10T06:07:00;8.70;;;6.37;;
2129;SDS011;1071;52.544;13.374;2023-06-10T06:09:27;9.77;;;7.03;;
2129;SDS011;1071;52.544;13.374;2023-06-10T06:11:54;9.17;;;6.67;;
2129;SDS011;1071;52.544;13.374;2023-06-10T06:14:23;7.70;;;6.27;;
2129;SDS011;1071;52.544;13.374;2023-06-10T06:16:50;8.83;;;7.07;;
2129;SDS011;1071;52.544;13.374;2023-06-10T06:19:17;7.37;;;6.77;;
2129;SDS011;1071;52.544;13.374;2023-06-10T06:21:44;8.43;;;6.50;;
2129;SDS011;1071;52.544;13.374;2023-06-10T06:24:13;9.00;;;6.80;;
2129;SDS011;1071;52.544;13.374;2023-06-10T06:26:44;10.23;;;6.67;;
2129;SDS011;1071;52.544;13.374;2023-06-10T06:29:12;8.00;;;7.03;;
2129;SDS011;1071;52.544;13.374;2023-06-10T06:31:41;11.83;;;5.40;;
2129;SDS011;1071;52.544;13.374;2023-06-10T06:34:08;7.60;;;6.90;;
2129;SDS011;1071;52.544;13.374;2023-06-10T06:36:37;7.57;;;6.70;;
2129;SDS011;1071;52.544;13.374;2023-06-10T06:39:07;9.60;;;6.83;;
2129;SDS011;1071;52.544;13.374;2023-06-10T06:41:35;10.10;;;7.83;;
2129;SDS011;1071;52.544;13.374;2023-06-10T06:44:02;7.50;;;6.57;;
2129;SDS011;1071;52.544;13.374;2023-06-10T06:46:32;8.40;;;6.63;;
2129;SDS011;1071;52.544;13.374;2023-06-10T06:49:09;9.87;;;6.70;;
2129;SDS011;1071;52.544;13.374;2023-06-10T06:51:36;10.70;;;7.20;;
2129;SDS011;1071;52.544;13.374;2023-06-10T06:54:04;10.57;;;7.03;;
2129;SDS011;1071;52.544;13.374;2023-06-10T06:56:31;8.37;;;6.40;;
2129;SDS011;1071;52.544;13.374;2023-06-10T06:58:59;9.07;;;7.40;;
2129;SDS011;1071;52.544;13.374;2023-06-10T07:01:26;8.73;;;6.57;;
2129;SDS011;1071;52.544;13.374;2023-06-10T07:03:56;10.90;;;8.70;;
2129;SDS011;1071;52.544;13.374;2023-06-10T07:06:24;6.77;;;6.13;;
2129;SDS011;1071;52.544;13.374;2023-06-10T07:08:51;7.77;;;7.13;;
2129;SDS011;1071;52.544;13.374;2023-06-10T07:11:19;7.63;;;6.23;;
2129;SDS011;1071;52.544;13.374;2023-06-10T07:13:47;8.17;;;7.37;;
2129;SDS011;1071;52.544;13.374;2023-06-10T07:16:14;12.00;;;7.07;;
2129;SDS011;1071;52.544;13.374;2023-06-10T07:18:41;7.67;;;7.00;;
2129;SDS011;1071;52.544;13.374;2023-06-10T07:21:08;9.50;;;6.93;;
2129;SDS011;1071;52.544;13.374;2023-06-10T07:23:42;7.70;;;7.00;;
2129;SDS011;1071;52.544;13.374;2023-06-10T07:26:10;9.30;;;6.90;;
2129;SDS011;1071;52.544;13.374;2023-06-10T07:28:38;10.37;;;6.90;;
2129;SDS011;1071;52.544;13.374;2023-06-10T07:31:06;9.37;;;6.90;;
2129;SDS011;1071;52.544;13.374;2023-06-10T07:33:33;10.50;;;6.30;;
2129;SDS011;1071;52.544;13.374;2023-06-10T07:36:02;9.27;;;7.53;;
2129;SDS011;1071;52.544;13.374;2023-06-10T07:38:29;12.67;;;7.60;;
2129;SDS011;1071;52.544;13.374;2023-06-10T07:40:57;11.27;;;7.17;;
2129;SDS011;1071;52.544;13.374;2023-06-10T07:43:32;7.30;;;6.60;;
2129;SDS011;1071;52.544;13.374;2023-06-10T07:45:59;7.67;;;6.87;;
2129;SDS011;1071;52.544;13.374;2023-06-10T07:48:30;7.63;;;6.83;;
2129;SDS011;1071;52.544;13.374;2023-06-10T07:50:57;8.40;;;7.70;;
2129;SDS011;1071;52.544;13.374;2023-06-10T07:53:24;9.13;;;8.20;;
2129;SDS011;1071;52.544;13.374;2023-06-10T07:55:54;10.53;;;8.17;;
2129;SDS011;1071;52.544;13.374;2023-06-10T07:58:23;10.33;;;7.30;;
2129;SDS011;1071;52.544;13.374;2023-06-10T08:00:58;9.20;;;7.30;;
2129;SDS011;1071;52.544;13.374;2023-06-10T08:03:25;8.13;;;7.33;;
2129;SDS011;1071;52.544;13.374;2023-06-10T08:05:54;7.83;;;6.97;;
2129;SDS011;1071;52.544;13.374;2023-06-10T08:08:21;8.40;;;7.60;;
2129;SDS011;1071;52.544;13.374;2023-06-10T08:10:48;8.73;;;7.73;;
2129;SDS011;1071;52.544;13.374;2023-06-10T08:13:15;8.10;;;7.23;;
2129;SDS011;1071;52.544;13.374;2023-06-10T08:15:44;8.10;;;7.37;;
2129;SDS011;1071;52.544;13.374;2023-06-10T08:18:13;12.50;;;8.10;;
2129;SDS011;1071;52.544;13.374;2023-06-10T08:20:43;8.33;;;7.60;;
2129;SDS011;1071;52.544;13.374;2023-06-10T08:23:10;9.10;;;6.93;;
2129;SDS011;1071;52.544;13.374;2023-06-10T08:25:37;8.47;;;7.53;;
2129;SDS011;1071;52.544;13.374;2023-06-10T08:28:05;9.57;;;8.20;;
2129;SDS011;1071;52.544;13.374;2023-06-10T08:30:38;8.47;;;7.53;;
2129;SDS011;1071;52.544;13.374;2023-06-10T08:33:07;9.97;;;7.40;;
2129;SDS011;1071;52.544;13.374;2023-06-10T08:35:36;8.30;;;7.60;;
2129;SDS011;1071;52.544;13.374;2023-06-10T08:38:05;8.13;;;7.43;;
2129;SDS011;1071;52.544;13.374;2023-06-10T08:40:32;8.13;;;7.33;;
2129;SDS011;1071;52.544;13.374;2023-06-10T08:43:00;7.50;;;6.77;;
2129;SDS011;1071;52.544;13.374;2023-06-10T08:45:32;8.30;;;7.50;;
2129;SDS011;1071;52.544;13.374;2023-06-10T08:48:01;7.60;;;6.90;;
2129;SDS011;1071;52.544;13.374;2023-06-10T08:50:33;7.33;;;6.73;;
2129;SDS011;1071;52.544;13.374;2023-06-10T08:53:07;13.10;;;6.97;;
2129;SDS011;1071;52.544;13.374;2023-06-10T08:55:35;9.20;;;8.30;;
2129;SDS011;1071;52.544;13.374;2023-06-10T08:58:05;7.33;;;6.40;;
2129;SDS011;1071;52.544;13.374;2023-06-10T09:00:35;8.67;;;7.47;;
2129;SDS011;1071;52.544;13.374;2023-06-10T09:03:04;7.97;;;7.20;;
2129;SDS011;1071;52.544;13.374;2023-06-10T09:05:35;7.63;;;6.93;;
2129;SDS011;1071;52.544;13.374;2023-06-10T09:08:02;8.33;;;7.53;;
2129;SDS011;1071;52.544;13.374;2023-06-10T09:10:33;12.90;;;7.40;;
2129;SDS011;1071;52.544;13.374;2023-06-10T09:13:00;8.60;;;7.70;;
2129;SDS011;1071;52.544;13.374;2023-06-10T09:15:27;7.60;;;6.90;;
2129;SDS011;1071;52.544;13.374;2023-06-10T09:17:55;9.63;;;8.60;;
2129;SDS011;1071;52.544;13.374;2023-06-10T09:20:22;9.50;;;8.53;;
2129;SDS011;1071;52.544;13.374;2023-06-10T09:22:51;8.03;;;7.00;;
2129;SDS011;1071;52.544;13.374;2023-06-10T09:25:18;8.20;;;7.20;;
2129;SDS011;1071;52.544;13.374;2023-06-10T09:27:48;9.40;;;7.90;;
2129;SDS011;1071;52.544;13.374;2023-06-10T09:30:25;9.30;;;8.03;;
2129;SDS011;1071;52.544;13.374;2023-06-10T09:32:53;9.47;;;7.13;;
2129;SDS011;1071;52.544;13.374;2023-06-10T09:35:21;9.00;;;7.90;;
2129;SDS011;1071;52.544;13.374;2023-06-10T09:37:51;10.53;;;7.93;;
2129;SDS011;1071;52.544;13.374;2023-06-10T09:40:19;11.90;;;8.00;;
2129;SDS011;1071;52.544;13.374;2023-06-10T09:42:49;10.90;;;7.13;;
2129;SDS011;1071;52.544;13.374;2023-06-10T09:45:20;9.67;;;7.03;;
2129;SDS011;1071;52.544;13.374;2023-06-10T09:47:50;10.60;;;8.03;;
2129;SDS011;1071;52.544;13.374;2023-06-10T09:50:18;11.83;;;7.30;;
2129;SDS011;1071;52.544;13.374;2023-06-10T09:52:47;8.77;;;7.63;;
2129;SDS011;1071;52.544;13.374;2023-06-10T09:55:16;7.93;;;6.90;;
2129;SDS011;1071;52.544;13.374;2023-06-10T09:57:44;10.03;;;8.37;;
2129;SDS011;1071;52.544;13.374;2023-06-10T10:00:15;12.53;;;8.83;;
2129;SDS011;1071;52.544;13.374;2023-06-10T10:02:46;8.53;;;7.70;;
2129;SDS011;1071;52.544;13.374;2023-06-10T10:05:15;11.53;;;7.40;;
2129;SDS011;1071;52.544;13.374;2023-06-10T10:07:46;12.77;;;8.73;;
2129;SDS011;1071;52.544;13.374;2023-06-10T10:10:16;8.80;;;7.90;;
2129;SDS011;1071;52.544;13.374;2023-06-10T10:12:44;9.43;;;8.50;;
2129;SDS011;1071;52.544;13.374;2023-06-10T10:15:13;8.93;;;8.13;;
2129;SDS011;1071;52.544;13.374;2023-06-10T10:17:44;9.53;;;8.00;;
2129;SDS011;1071;52.544;13.374;2023-06-10T10:20:16;8.73;;;7.80;;
2129;SDS011;1071;52.544;13.374;2023-06-10T10:22:49;12.07;;;7.60;;
2129;SDS011;1071;52.544;13.374;2023-06-10T10:25:21;8.57;;;7.70;;
2129;SDS011;1071;52.544;13.374;2023-06-10T10:27:51;8.00;;;7.20;;
2129;SDS011;1071;52.544;13.374;2023-06-10T10:30:21;12.30;;;8.60;;
2129;SDS011;1071;52.544;13.374;2023-06-10T10:32:52;10.17;;;7.83;;
2129;SDS011;1071;52.544;13.374;2023-06-10T10:35:23;13.33;;;8.07;;
2129;SDS011;1071;52.544;13.374;2023-06-10T10:37:52;7.43;;;6.67;;
2129;SDS011;1071;52.544;13.374;2023-06-10T10:40:21;7.70;;;7.10;;
2129;SDS011;1071;52.544;13.374;2023-06-10T10:42:51;7.17;;;6.50;;
2129;SDS011;1071;52.544;13.374;2023-06-10T10:45:21;6.50;;;5.87;;
2129;SDS011;1071;52.544;13.374;2023-06-10T10:47:51;7.37;;;6.57;;
2129;SDS011;1071;52.544;13.374;2023-06-10T10:50:20;6.73;;;6.13;;
2129;SDS011;1071;52.544;13.374;2023-06-10T10:52:53;6.07;;;5.60;;
2129;SDS011;1071;52.544;13.374;2023-06-10T10:55:23;7.00;;;6.33;;
2129;SDS011;1071;52.544;13.374;2023-06-10T10:57:55;5.80;;;5.13;;
2129;SDS011;1071;52.544;13.374;2023-06-10T11:00:25;6.90;;;6.20;;
2129;SDS011;1071;52.544;13.374;2023-06-10T11:02:56;6.10;;;5.60;;
2129;SDS011;1071;52.544;13.374;2023-06-10T11:05:30;6.20;;;5.80;;
2129;SDS011;1071;52.544;13.374;2023-06-10T11:08:04;6.70;;;6.20;;
2129;SDS011;1071;52.544;13.374;2023-06-10T11:10:34;7.40;;;6.80;;
2129;SDS011;1071;52.544;13.374;2023-06-10T11:13:06;7.03;;;6.53;;
2129;SDS011;1071;52.544;13.374;2023-06-10T11:15:40;6.80;;;6.20;;
2129;SDS011;1071;52.544;13.374;2023-06-10T11:18:19;7.10;;;6.60;;
2129;SDS011;1071;52.544;13.374;2023-06-10T11:20:52;6.70;;;6.10;;
2129;SDS011;1071;52.544;13.374;2023-06-10T11:23:31;6.53;;;6.03;;
2129;SDS011;1071;52.544;13.374;2023-06-10T11:26:10;7.20;;;6.33;;
2129;SDS011;1071;52.544;13.374;2023-06-10T11:28:41;7.40;;;6.70;;
2129;SDS011;1071;52.544;13.374;2023-06-10T11:31:27;6.33;;;5.73;;
2129;SDS011;1071;52.544;13.374;2023-06-10T11:33:59;6.63;;;6.03;;
2129;SDS011;1071;52.544;13.374;2023-06-10T11:36:28;5.87;;;5.47;;
2129;SDS011;1071;52.544;13.374;2023-06-10T11:38:56;6.80;;;5.90;;
2129;SDS011;1071;52.544;13.374;2023-06-10T11:41:26;5.80;;;5.40;;
2129;SDS011;1071;52.544;13.374;2023-06-10T11:43:54;7.77;;;7.03;;
2129;SDS011;1071;52.544;13.374;2023-06-10T11:46:22;7.53;;;6.90;;
2129;SDS011;1071;52.544;13.374;2023-06-10T11:48:51;7.30;;;6.60;;
2129;SDS011;1071;52.544;13.374;2023-06-10T11:51:20;7.07;;;6.37;;
2129;SDS011;1071;52.544;13.374;2023-06-10T11:53:49;15.83;;;7.83;;
2129;SDS011;1071;52.544;13.374;2023-06-10T11:56:19;9.63;;;7.90;;
2129;SDS011;1071;52.544;13.374;2023-06-10T11:58:51;11.37;;;7.83;;
2129;SDS011;1071;52.544;13.374;2023-06-10T12:01:20;10.30;;;8.20;;
2129;SDS011;1071;52.544;13.374;2023-06-10T12:03:56;7.10;;;6.53;;
2129;SDS011;1071;52.544;13.374;2023-06-10T12:06:24;13.43;;;8.20;;
2129;SDS011;1071;52.544;13.374;2023-06-10T12:08:51;9.30;;;8.50;;
2129;SDS011;1071;52.544;13.374;2023-06-10T12:11:18;7.60;;;6.87;;
2129;SDS011;1071;52.544;13.374;2023-06-10T12:13:48;8.60;;;7.90;;
2129;SDS011;1071;52.544;13.374;2023-06-10T12:16:16;8.70;;;8.00;;
2129;SDS011;1071;52.544;13.374;2023-06-10T12:18:44;8.10;;;7.50;;
2129;SDS011;1071;52.544;13.374;2023-06-10T12:21:17;9.03;;;8.33;;
2129;SDS011;1071;52.544;13.374;2023-06-10T12:24:05;9.07;;;8.27;;
2129;SDS011;1071;52.544;13.374;2023-06-10T12:26:39;6.97;;;6.30;;
2129;SDS011;1071;52.544;13.374;2023-06-10T12:29:18;7.50;;;6.87;;
2129;SDS011;1071;52.544;13.374;2023-06-10T12:31:51;7.03;;;6.53;;
2129;SDS011;1071;52.544;13.374;2023-06-10T12:34:33;7.07;;;6.47;;
2129;SDS011;1071;52.544;13.374;2023-06-10T12:37:02;6.77;;;6.27;;
2129;SDS011;1071;52.544;13.374;2023-06-10T12:39:31;6.30;;;5.80;;
2129;SDS011;1071;52.544;13.374;2023-06-10T12:41:58;7.13;;;6.63;;
2129;SDS011;1071;52.544;13.374;2023-06-10T12:44:31;8.70;;;7.83;;
2129;SDS011;1071;52.544;13.374;2023-06-10T12:46:59;8.00;;;7.30;;
2129;SDS011;1071;52.544;13.374;2023-06-10T12:49:26;8.03;;;7.40;;
2129;SDS011;1071;52.544;13.374;2023-06-10T12:51:55;7.23;;;6.73;;
2129;SDS011;1071;52.544;13.374;2023-06-10T12:54:25;8.40;;;7.70;;
2129;SDS011;1071;52.544;13.374;2023-06-10T12:56:53;8.70;;;7.90;;
2129;SDS011;1071;52.544;13.374;2023-06-10T12:59:25;10.20;;;9.30;;
2129;SDS011;1071;52.544;13.374;2023-06-10T13:01:54;10.00;;;9.10;;
2129;SDS011;1071;52.544;13.374;2023-06-10T13:04:21;9.17;;;8.23;;
2129;SDS011;1071;52.544;13.374;2023-06-10T13:06:50;9.60;;;8.90;;
2129;SDS011;1071;52.544;13.374;2023-06-10T13:09:17;11.20;;;10.17;;
2129;SDS011;1071;52.544;13.374;2023-06-10T13:11:44;9.70;;;9.00;;
2129;SDS011;1071;52.544;13.374;2023-06-10T13:14:14;10.33;;;9.30;;
2129;SDS011;1071;52.544;13.374;2023-06-10T13:16:41;10.47;;;9.47;;
2129;SDS011;1071;52.544;13.374;2023-06-10T13:19:11;10.40;;;9.50;;
2129;SDS011;1071;52.544;13.374;2023-06-10T13:21:38;11.37;;;10.47;;
2129;SDS011;1071;52.544;13.374;2023-06-10T13:24:05;9.23;;;8.50;;
2129;SDS011;1071;52.544;13.374;2023-06-10T13:26:32;10.63;;;9.83;;
2129;SDS011;1071;52.544;13.374;2023-06-10T13:28:59;10.17;;;9.20;;
2129;SDS011;1071;52.544;13.374;2023-06-10T13:31:27;9.67;;;8.87;;
2129;SDS011;1071;52.544;13.374;2023-06-10T13:33:54;9.80;;;8.90;;
2129;SDS011;1071;52.544;13.374;2023-06-10T13:36:22;9.43;;;8.53;;
2129;SDS011;1071;52.544;13.374;2023-06-10T13:38:49;11.47;;;8.80;;
2129;SDS011;1071;52.544;13.374;2023-06-10T13:41:16;9.60;;;8.80;;
2129;SDS011;1071;52.544;13.374;2023-06-10T13:43:43;8.20;;;7.60;;
2129;SDS011;1071;52.544;13.374;2023-06-10T13:46:11;9.70;;;8.80;;
2129;SDS011;1071;52.544;13.374;2023-06-10T13:48:40;8.60;;;7.90;;
2129;SDS011;1071;52.544;13.374;2023-06-10T13:51:07;9.80;;;8.87;;
2129;SDS011;1071;52.544;13.374;2023-06-10T13:53:37;9.70;;;8.80;;
2129;SDS011;1071;52.544;13.374;2023-06-10T13:56:04;10.03;;;9.00;;
2129;SDS011;1071;52.544;13.374;2023-06-10T13:58:32;8.60;;;7.90;;
2129;SDS011;1071;52.544;13.374;2023-06-10T14:01:03;8.90;;;8.27;;
2129;SDS011;1071;52.544;13.374;2023-06-10T14:03:30;8.63;;;7.93;;
2129;SDS011;1071;52.544;13.374;2023-06-10T14:05:58;8.80;;;8.10;;
2129;SDS011;1071;52.544;13.374;2023-06-10T14:08:25;9.00;;;8.17;;
2129;SDS011;1071;52.544;13.374;2023-06-10T14:10:56;8.57;;;7.83;;
2129;SDS011;1071;52.544;13.374;2023-06-10T14:13:23;9.40;;;8.70;;
2129;SDS011;1071;52.544;13.374;2023-06-10T14:15:52;8.73;;;8.07;;
2129;SDS011;1071;52.544;13.374;2023-06-10T14:18:19;11.13;;;9.77;;
2129;SDS011;1071;52.544;13.374;2023-06-10T14:20:46;8.03;;;7.43;;
2129;SDS011;1071;52.544;13.374;2023-06-10T14:23:16;8.00;;;6.97;;
2129;SDS011;1071;52.544;13.374;2023-06-10T14:25:43;6.90;;;6.30;;
2129;SDS011;1071;52.544;13.374;2023-06-10T14:28:11;7.10;;;6.40;;
2129;SDS011;1071;52.544;13.374;2023-06-10T14:30:38;7.00;;;6.50;;
2129;SDS011;1071;52.544;13.374;2023-06-10T14:33:05;9.20;;;7.23;;
2129;SDS011;1071;52.544;13.374;2023-06-10T14:35:32;7.00;;;6.60;;
2129;SDS011;1071;52.544;13.374;2023-06-10T14:38:00;7.53;;;7.03;;
2129;SDS011;1071;52.544;13.374;2023-06-10T14:40:27;7.17;;;6.37;;
2129;SDS011;1071;52.544;13.374;2023-06-10T14:42:54;8.03;;;7.00;;
2129;SDS011;1071;52.544;13.374;2023-06-10T14:45:23;7.97;;;7.37;;
2129;SDS011;1071;52.544;13.374;2023-06-10T14:47:50;7.20;;;6.70;;
2129;SDS011;1071;52.544;13.374;2023-06-10T14:50:17;7.20;;;6.70;;
2129;SDS011;1071;52.544;13.374;2023-06-10T14:52:44;8.23;;;7.43;;
2129;SDS011;1071;52.544;13.374;2023-06-10T14:55:12;7.33;;;6.63;;
2129;SDS011;1071;52.544;13.374;2023-06-10T14:57:39;7.70;;;7.00;;
2129;SDS011;1071;52.544;13.374;2023-06-10T15:00:07;7.97;;;7.30;;
2129;SDS011;1071;52.544;13.374;2023-06-10T15:02:41;7.67;;;6.87;;
2129;SDS011;1071;52.544;13.374;2023-06-10T15:05:08;7.17;;;6.47;;
2129;SDS011;1071;52.544;13.374;2023-06-10T15:07:37;9.83;;;5.40;;
2129;SDS011;1071;52.544;13.374;2023-06-10T15:10:05;9.07;;;6.70;;